Home > Products > Valid Products > TAF

000
FTUS44 KEWX 301100
TAFDRT
TAF
KDRT 301120Z 3012/3112 02005KT P6SM OVC050
     FM301800 12009KT P6SM OVC040
     FM310000 12010KT P6SM OVC025
     FM310600 11009KT 4SM -RA BR BKN008 OVC015=



000
FTUS44 KEWX 301100
TAFAUS
TAF
KAUS 301120Z 3012/3118 02015KT P6SM BKN100 OVC250
     FM301800 07009KT P6SM BKN040 OVC250
     FM310600 09008KT P6SM OVC030
     FM311400 09009KT 5SM -RA BR SCT008 OVC012=



000
FTUS44 KEWX 301100
TAFSAT
TAF
KSAT 301120Z 3012/3118 03011KT P6SM SCT050 BKN100 OVC250
     FM301800 07009KT P6SM BKN040 OVC250
     FM310200 09010KT P6SM OVC030
     FM311200 10010KT 3SM -RA BR SCT008 OVC012=



000
FTUS44 KEWX 300500
TAFDRT
TAF
KDRT 300525Z 3006/3106 03010KT P6SM BKN050 OVC070
     FM301700 11010KT P6SM OVC025=



000
FTUS44 KEWX 300500
TAFSAT
TAF
KSAT 300525Z 3006/3112 03012KT P6SM BKN050
     FM302200 09010KT P6SM OVC025
     FM310900 10010KT P6SM OVC015=



000
FTUS44 KEWX 300500
TAFAUS
TAF
KAUS 300525Z 3006/3112 01015KT P6SM BKN100
     FM301600 02010KT P6SM SCT030 OVC120
     FM302200 09005KT P6SM SCT040 OVC120=



000
FTUS44 KEWX 300200 AAA
TAFSAT
TAF AMD
KSAT 300231Z 3003/3106 02005KT P6SM BKN050
     FM300400 03015KT P6SM FEW030 BKN050
     FM301300 02012KT P6SM BKN025 OVC100
     FM302200 09005KT P6SM OVC020=



000
FTUS44 KEWX 292300
TAFSAT
TAF
KSAT 292339Z 3000/3106 14005KT P6SM SCT040 BKN250
     FM300100 03015KT P6SM FEW030 BKN100
     FM301300 02012KT P6SM BKN025 OVC100
     FM302200 09005KT P6SM OVC020=



000
FTUS44 KEWX 292300
TAFAUS
TAF
KAUS 292339Z 3000/3106 01015KT P6SM BKN100
     FM301600 02012KT P6SM SCT030 BKN120
     FM302200 09005KT P6SM SCT040 BKN120=



000
FTUS44 KEWX 292300
TAFDRT
TAF
KDRT 292339Z 3000/3024 10005KT P6SM SCT100 BKN250
     FM300200 03010KT P6SM BKN035 BKN100
     FM301700 10010KT P6SM OVC025=



000
FTUS44 KEWX 291700 RRA
TAFDRT
TAF
KDRT 291742Z 2918/3018 10005KT P6SM SCT100 BKN250
     FM300200 02010KT P6SM BKN035 BKN100
     FM300900 04013KT P6SM BKN030 OVC100
     FM301500 06008KT P6SM OVC025=



000
FTUS44 KEWX 291700 RRA
TAFAUS
TAF
KAUS 291742Z 2918/3024 VRB05KT P6SM FEW020 SCT250
     FM292100 35005KT P6SM SCT100
     FM300200 01015KT P6SM BKN100
     FM301600 02012KT P6SM SCT030 BKN120
     FM302000 03008KT P6SM SCT040 SCT080 BKN120=



000
FTUS44 KEWX 291700 RRA
TAFSAT
TAF
KSAT 291742Z 2918/3024 18006KT P6SM SCT020 SCT250
     FM292100 07005KT P6SM FEW030 SCT100
     FM300000 04007KT P6SM SCT100 SCT250
     FM300300 03014KT P6SM FEW030 BKN100
     FM301300 02012KT P6SM BKN025 OVC100
     FM302000 04008KT P6SM OVC020=



000
FTUS44 KEWX 291600 AAB
TAFSAT
TAF AMD
KSAT 291607Z 2916/3018 21006KT P6SM BKN012
     FM291700 VRB03KT P6SM BKN015
     FM291800 01004KT P6SM SCT020 BKN100
     FM292000 06006KT P6SM BKN100
     FM300000 03015KT P6SM FEW030 BKN100
     FM301200 03014KT P6SM BKN026 OVC100=



000
FTUS44 KEWX 291400 AAA
TAFSAT
TAF AMD
KSAT 291427Z 2914/3018 21006KT 5SM BR BKN008 OVC015
     FM291700 VRB03KT P6SM BKN005 BKN100
     FM291800 01004KT P6SM FEW010 BKN100
     FM292000 06006KT P6SM BKN100
     FM300000 03015KT P6SM FEW030 BKN100
     FM301200 03014KT P6SM BKN026 OVC100=



000
FTUS44 KEWX 291200 AAA
TAFAUS
TAF AMD
KAUS 291210Z 2912/3018 18005KT 1/2SM FG VV002
      TEMPO 2912/2915 1/4SM FG
     FM291600 27004KT P6SM FEW006 SCT100 SCT250
     FM292000 01005KT P6SM BKN100
     FM292200 01015KT P6SM BKN100
     FM301600 02012KT P6SM SCT030 BKN100=



000
FTUS44 KEWX 291100
TAFDRT
TAF
KDRT 291132Z 2912/3012 10005KT P6SM FEW100 BKN250
     FM291900 03010KT P6SM SCT100 BKN200
     FM300200 01012KT P6SM BKN030=



000
FTUS44 KEWX 291100
TAFAUS
TAF
KAUS 291132Z 2912/3018 00000KT 1/2SM FG OVC001
      TEMPO 2912/2915 1/4SM FG
     FM291600 27004KT P6SM FEW006 SCT100 SCT250
     FM292000 01005KT P6SM BKN100
     FM292200 01015KT P6SM BKN100
     FM301600 02012KT P6SM SCT030 BKN100=



000
FTUS44 KEWX 291100
TAFSAT
TAF
KSAT 291132Z 2912/3018 21006KT 1/2SM FG VV002
      TEMPO 2912/2916 1/4SM FG
     FM291700 VRB03KT P6SM BKN005 BKN100
     FM291800 01004KT P6SM FEW010 BKN100
     FM292000 06006KT P6SM BKN100
     FM300000 03015KT P6SM FEW030 BKN100
     FM301200 03014KT P6SM BKN026 OVC100=



000
FTUS44 KEWX 291000 AAC
TAFSAT
TAF AMD
KSAT 291009Z 2910/3012 00000KT P6SM BKN006
     FM291200 VRB03KT 5SM BR BKN004
      TEMPO 2913/2915 1SM BR BKN003
     FM291600 VRB03KT P6SM FEW010 SCT100 BKN250
     FM292000 04006KT P6SM BKN100
     FM300000 03015KT P6SM FEW030 BKN100=



000
FTUS44 KEWX 290900 AAB
TAFSAT
TAF AMD
KSAT 290957Z 2910/3012 00000KT P6SM SCT007
     FM291030 VRB03KT 3SM BR BKN004
      TEMPO 2912/2915 1SM BR BKN003
     FM291600 VRB03KT P6SM FEW010 SCT100 BKN250
     FM292000 04006KT P6SM BKN100
     FM300000 03015KT P6SM FEW030 BKN100=



000
FTUS44 KEWX 290900 AAB
TAFAUS
TAF AMD
KAUS 290954Z 2910/3012 15004KT 2SM BR SCT003
      TEMPO 2911/2915 1SM BR BKN003
     FM291600 24005KT P6SM FEW010 SCT100 SCT250
     FM292100 01005KT P6SM BKN100
     FM292300 01015KT P6SM BKN100=



000
FTUS44 KEWX 290900 AAA
TAFSAT
TAF AMD
KSAT 290911Z 2909/3012 00000KT P6SM SCT250
     FM291100 19005KT 3SM BR SCT003 SCT100
      TEMPO 2912/2915 1SM BR BKN003
     FM291600 VRB03KT P6SM FEW010 SCT100 BKN250
     FM292000 04006KT P6SM BKN100
     FM300000 03015KT P6SM FEW030 BKN100=



000
FTUS44 KEWX 290900 AAA
TAFAUS
TAF AMD
KAUS 290905Z 2909/3012 00000KT P6SM FEW008 SCT250
     FM291000 VRB03KT 4SM BR SCT007 SCT250
      TEMPO 2911/2915 1SM BR BKN003
     FM291600 24005KT P6SM FEW010 SCT100 SCT250
     FM292100 01005KT P6SM BKN100
     FM292300 01015KT P6SM BKN100=



000
FTUS44 KEWX 290500
TAFSAT
TAF
KSAT 290523Z 2906/3012 19005KT P6SM FEW250
     FM290900 20005KT 1SM BR SCT003 SCT100
      TEMPO 2911/2915 BKN003
     FM291600 16005KT P6SM SCT100
     FM292300 03015KT P6SM BKN100=



000
FTUS44 KEWX 290500
TAFDRT
TAF
KDRT 290523Z 2906/3006 12007KT P6SM SKC
     FM291900 03010KT P6SM SCT100 BKN200
     FM300300 02015KT P6SM BKN150=



000
FTUS44 KEWX 290500
TAFAUS
TAF
KAUS 290523Z 2906/3012 21004KT P6SM SKC
     FM290900 21005KT 1SM BR SCT003 SCT100
      TEMPO 2911/2915 BKN003
     FM291600 24005KT P6SM SCT100
     FM292100 02015KT P6SM BKN100=



000
FTUS44 KEWX 282300
TAFSAT
TAF
KSAT 282338Z 2900/3006 16010KT P6SM SCT250
     FM290900 20005KT 1SM BR SCT003 SCT100
      TEMPO 2911/2915 BKN003
     FM291600 16005KT P6SM SCT100
     FM292300 03015KT P6SM SCT100 BKN250=



000
FTUS44 KEWX 282300
TAFDRT
TAF
KDRT 282338Z 2900/2924 14012KT P6SM SCT250
     FM290200 10005KT P6SM FEW100
     FM291900 07010KT P6SM SCT100 BKN200=



000
FTUS44 KEWX 282300
TAFAUS
TAF
KAUS 282338Z 2900/3006 19012KT P6SM SCT250
     FM290100 18005KT P6SM FEW100 SCT250
     FM290900 21005KT 1SM BR SCT003 SCT100
      TEMPO 2911/2915 BKN003
     FM291600 24005KT P6SM SCT100
     FM292100 02015KT P6SM SCT100 BKN200=



000
FTUS44 KEWX 282000 AAA
TAFAUS
TAF AMD
KAUS 282001Z 2820/2924 19012G22KT P6SM FEW120 SCT250
     FM290100 18006KT P6SM FEW100 SCT250
     FM290900 21005KT 1SM BR SCT003 SCT100 SCT250
      TEMPO 2911/2915 BKN003
     FM291600 26005KT P6SM SCT100 SCT250
     FM292100 02011KT P6SM SCT090 BKN200=



000
FTUS44 KEWX 281700
TAFDRT
TAF
KDRT 281730Z 2818/2918 14008KT P6SM SCT250
     FM290100 10005KT P6SM FEW100 SCT250
     FM291700 13006KT P6SM SCT100 BKN200=



000
FTUS44 KEWX 281700
TAFSAT
TAF
KSAT 281730Z 2818/2924 21008KT P6SM FEW100 SCT250
     FM282000 19009KT P6SM FEW100 SCT250
     FM290100 17005KT P6SM FEW100 SCT250
     FM290900 20004KT 1SM BR SCT003 SCT100 SCT250
      TEMPO 2911/2915 BKN003
     FM291600 VRB03KT P6SM SCT100 SCT250
     FM292300 02007KT P6SM SCT080 BKN200=



000
FTUS44 KEWX 281700
TAFAUS
TAF
KAUS 281730Z 2818/2924 21008KT P6SM SCT250
     FM282000 19012KT P6SM FEW120 SCT250
     FM290100 18006KT P6SM FEW100 SCT250
     FM290900 21005KT 1SM BR SCT003 SCT100 SCT250
      TEMPO 2911/2915 BKN003
     FM291600 26005KT P6SM SCT100 SCT250
     FM292100 02011KT P6SM SCT090 BKN200=



000
FTUS44 KEWX 281100
TAFSAT
TAF
KSAT 281130Z 2812/2918 31004KT P6SM FEW250
     FM281700 19006KT P6SM FEW100 SCT250
     FM282000 18009KT P6SM FEW100 SCT250
     FM290100 18005KT P6SM FEW100 SCT250
     FM290900 21004KT 1SM BR SCT003 SCT100 SCT250
     FM291600 VRB03KT P6SM SCT100 SCT250=



000
FTUS44 KEWX 281100
TAFAUS
TAF
KAUS 281130Z 2812/2918 00000KT P6SM FEW250
     FM281700 19006KT P6SM SCT250
     FM282000 18011KT P6SM FEW100 SCT250
     FM290100 19006KT P6SM FEW100 SCT250
     FM290900 21005KT 1SM BR SCT003 SCT100 SCT250
     FM291600 26005KT P6SM SCT100 SCT250=



000
FTUS44 KEWX 281100
TAFDRT
TAF
KDRT 281130Z 2812/2912 00000KT P6SM SCT250
     FM281700 14008KT P6SM SCT250
     FM290100 10005KT P6SM SCT250=



000
FTUS44 KEWX 280900 AAA
TAFSAT
TAF AMD
KSAT 280907Z 2809/2912 30006KT P6SM SKC
     FM281800 18009KT P6SM SCT250
     FM290100 18005KT P6SM SCT250
     FM290900 19004KT 3SM BR SCT004=



000
FTUS44 KEWX 280900 AAA
TAFSAT
TAF AMD
KSAT 280907Z 2809/2912 30006KT P6SM SKC
     FM281800 18009KT P6SM SCT250
     FM290100 18005KT P6SM SCT250
     FM290900 19004KT 3SM BR SCT004=



000
FTUS44 KEWX 280500
TAFAUS
TAF
KAUS 280524Z 2806/2912 VRB02KT P6SM SCT250
     FM281800 19012KT P6SM SCT150
     FM290100 18005KT P6SM BKN150=



000
FTUS44 KEWX 280500
TAFDRT
TAF
KDRT 280524Z 2806/2906 VRB03KT P6SM BKN250
     FM281900 14008KT P6SM SCT200=



000
FTUS44 KEWX 280500
TAFSAT
TAF
KSAT 280524Z 2806/2912 VRB02KT P6SM SCT250
     FM281800 17012KT P6SM BKN150
     FM290100 16006KT P6SM SCT250
     FM290900 17006KT P6SM FEW010=



000
FTUS44 KEWX 272300
TAFDRT
TAF
KDRT 272323Z 2800/2824 VRB05KT P6SM BKN250
     FM281900 14008KT P6SM SCT200=



000
FTUS44 KEWX 272300
TAFAUS
TAF
KAUS 272323Z 2800/2906 VRB03KT P6SM SCT250
     FM281700 19010KT P6SM BKN150=



000
FTUS44 KEWX 272300
TAFSAT
TAF
KSAT 272323Z 2800/2906 18005KT P6SM SCT250
     FM280300 VRB02KT P6SM BKN200
     FM281800 17010KT P6SM BKN150=



000
FTUS44 KEWX 271700
TAFSAT
TAF
KSAT 271721Z 2718/2824 30005KT P6SM FEW250
     FM280100 VRB03KT P6SM BKN250=



000
FTUS44 KEWX 271700
TAFDRT
TAF
KDRT 271721Z 2718/2818 VRB05KT P6SM BKN250=



000
FTUS44 KEWX 271700
TAFAUS
TAF
KAUS 271721Z 2718/2824 31007KT P6SM SCT250
     FM281700 19012KT P6SM BKN250=



    US Dept of Commerce
    National Oceanic and Atmospheric Administration
    National Weather Service
    1325 East West Highway
    Silver Spring, MD 20910
    Page Author: NWS Internet Services Team
Disclaimer
Information Quality
Credits
Glossary
Privacy Policy
Freedom of Information Act (FOIA)
About Us
Career Opportunities